createdAt,value
2022-09-04T00:00:49.449Z,62.6
2022-09-04T00:02:33.154Z,62.6
2022-09-04T00:04:16.839Z,62.6
2022-09-04T00:06:00.551Z,62.6
2022-09-04T00:07:44.248Z,62.6
2022-09-04T00:09:27.941Z,62.6
2022-09-04T00:11:11.650Z,62.6
2022-09-04T00:12:55.354Z,62.6
2022-09-04T00:14:39.046Z,62.6
2022-09-04T00:16:22.767Z,62.6
2022-09-04T00:18:06.446Z,62.6
2022-09-04T00:19:50.153Z,62.6
2022-09-04T00:21:33.891Z,62.5
2022-09-04T00:23:17.558Z,62.5
2022-09-04T00:25:01.274Z,62.6
2022-09-04T00:26:44.980Z,62.6
2022-09-04T00:28:28.677Z,62.6
2022-09-04T00:30:12.375Z,62.6
2022-09-04T00:31:56.079Z,62.6
2022-09-04T00:33:39.792Z,62.6
2022-09-04T00:35:23.495Z,62.6
2022-09-04T00:37:07.223Z,62.6
2022-09-04T00:38:50.900Z,62.7
2022-09-04T00:40:34.606Z,62.7
2022-09-04T00:42:18.307Z,62.7
2022-09-04T00:44:02.030Z,62.7
2022-09-04T00:45:45.724Z,62.7
2022-09-04T00:47:29.405Z,62.8
2022-09-04T00:49:13.113Z,62.8
2022-09-04T00:50:56.803Z,62.8
2022-09-04T00:52:40.524Z,62.8
2022-09-04T00:54:24.223Z,62.8
2022-09-04T00:56:07.920Z,62.8
2022-09-04T00:57:51.629Z,62.8
2022-09-04T00:59:35.313Z,62.8
2022-09-04T01:01:19.030Z,62.8
2022-09-04T01:03:02.732Z,62.9
2022-09-04T01:04:46.466Z,62.9
2022-09-04T01:06:30.125Z,62.9
2022-09-04T01:08:13.829Z,62.9
2022-09-04T01:09:57.556Z,62.9
2022-09-04T01:11:41.228Z,62.9
2022-09-04T01:13:24.931Z,62.9
2022-09-04T01:15:08.634Z,62.9
2022-09-04T01:16:52.338Z,62.9
2022-09-04T01:18:36.026Z,62.9
2022-09-04T01:20:19.747Z,62.9
2022-09-04T01:22:03.443Z,63
2022-09-04T01:23:47.152Z,63
2022-09-04T01:25:30.843Z,63
2022-09-04T01:27:14.559Z,62.9
2022-09-04T01:28:58.256Z,63
2022-09-04T01:30:41.965Z,63
2022-09-04T01:32:25.675Z,63
2022-09-04T01:34:09.368Z,63
2022-09-04T01:35:53.092Z,63
2022-09-04T01:37:36.785Z,63
2022-09-04T01:39:20.477Z,63
2022-09-04T01:41:04.177Z,63.1
2022-09-04T01:42:47.887Z,63
2022-09-04T01:44:31.585Z,63.1
2022-09-04T01:46:15.298Z,63.1
2022-09-04T01:47:58.990Z,63.1
2022-09-04T01:49:42.756Z,63.1
2022-09-04T01:51:26.411Z,63.1
2022-09-04T01:53:10.104Z,63
2022-09-04T01:54:53.815Z,63
2022-09-04T01:56:37.504Z,63
2022-09-04T01:58:21.223Z,63
2022-09-04T02:00:04.939Z,63
2022-09-04T02:01:48.605Z,63
2022-09-04T02:03:32.334Z,63
2022-09-04T02:05:16.041Z,63
2022-09-04T02:06:59.724Z,63
2022-09-04T02:08:43.443Z,63
2022-09-04T02:10:27.121Z,63
2022-09-04T02:12:10.843Z,62.9
2022-09-04T02:13:54.529Z,62.9
2022-09-04T02:15:38.219Z,62.9
2022-09-04T02:17:21.929Z,62.9
2022-09-04T02:19:05.638Z,62.9
2022-09-04T02:20:49.334Z,62.9
2022-09-04T02:22:33.042Z,62.9
2022-09-04T02:24:16.740Z,62.9
2022-09-04T02:26:00.434Z,62.9
2022-09-04T02:27:44.150Z,62.9
2022-09-04T02:29:27.867Z,62.8
2022-09-04T02:31:11.547Z,62.9
2022-09-04T02:32:55.306Z,62.9
2022-09-04T02:34:38.981Z,62.9
2022-09-04T02:36:22.710Z,62.9
2022-09-04T02:38:06.386Z,62.9
2022-09-04T02:39:50.069Z,62.9
2022-09-04T02:41:33.785Z,62.8
2022-09-04T02:43:17.476Z,62.8
2022-09-04T02:45:01.166Z,62.8
2022-09-04T02:46:44.884Z,62.8
2022-09-04T02:48:28.586Z,62.8
2022-09-04T02:50:12.308Z,62.8
2022-09-04T02:51:55.995Z,62.8
2022-09-04T02:53:39.696Z,62.8
2022-09-04T02:55:23.398Z,62.7
2022-09-04T02:57:07.111Z,62.7
2022-09-04T02:58:50.786Z,62.8
2022-09-04T03:00:34.527Z,62.7
2022-09-04T03:02:18.200Z,62.7
2022-09-04T03:04:01.902Z,62.8
2022-09-04T03:07:29.319Z,62.7
2022-09-04T03:09:13.020Z,62.7
2022-09-04T03:10:56.735Z,62.8
2022-09-04T03:12:40.439Z,62.8
2022-09-04T03:14:24.122Z,62.8
2022-09-04T03:16:07.826Z,62.7
2022-09-04T03:17:51.560Z,62.7
2022-09-04T03:19:35.228Z,62.7
2022-09-04T03:21:18.926Z,62.7
2022-09-04T03:23:02.635Z,62.7
2022-09-04T03:24:46.334Z,62.8
2022-09-04T03:26:30.039Z,62.7
2022-09-04T03:28:13.736Z,62.7
2022-09-04T03:29:57.426Z,62.8
2022-09-04T03:31:41.149Z,62.8
2022-09-04T03:33:24.838Z,62.8
2022-09-04T03:35:08.540Z,62.8
2022-09-04T03:36:52.242Z,62.7
2022-09-04T03:38:35.951Z,62.7
2022-09-04T03:40:19.643Z,62.8
2022-09-04T03:42:03.344Z,62.8
2022-09-04T03:43:47.055Z,62.8
2022-09-04T03:45:30.796Z,62.8
2022-09-04T03:47:14.446Z,62.8
2022-09-04T03:48:58.163Z,62.8
2022-09-04T03:50:41.846Z,62.7
2022-09-04T03:52:25.572Z,62.8
2022-09-04T03:54:09.250Z,62.8
2022-09-04T03:55:53.008Z,62.8
2022-09-04T03:57:36.699Z,62.8
2022-09-04T03:59:20.371Z,62.8
2022-09-04T04:01:04.100Z,62.8
2022-09-04T04:02:47.763Z,62.8
2022-09-04T04:04:31.470Z,62.8
2022-09-04T04:06:15.186Z,62.8
2022-09-04T04:07:58.878Z,62.8
2022-09-04T04:09:42.578Z,62.9
2022-09-04T04:11:26.327Z,62.8
2022-09-04T04:13:10.009Z,62.8
2022-09-04T04:14:53.697Z,62.8
2022-09-04T04:16:37.473Z,62.9
2022-09-04T04:18:21.086Z,62.8
2022-09-04T04:20:04.776Z,62.8
2022-09-04T04:21:48.470Z,62.8
2022-09-04T04:23:32.175Z,62.9
2022-09-04T04:25:15.936Z,62.9
2022-09-04T04:26:59.601Z,62.9
2022-09-04T04:28:43.277Z,62.9
2022-09-04T04:30:26.995Z,62.9
2022-09-04T04:32:10.704Z,62.9
2022-09-04T04:33:54.442Z,62.9
2022-09-04T04:35:38.084Z,62.9
2022-09-04T04:37:21.787Z,62.9
2022-09-04T04:39:05.525Z,62.9
2022-09-04T04:40:49.198Z,62.9
2022-09-04T04:42:32.914Z,62.9
2022-09-04T04:44:16.597Z,62.9
2022-09-04T04:46:00.328Z,62.9
2022-09-04T04:47:44.004Z,62.9
2022-09-04T04:49:27.733Z,62.9
2022-09-04T04:51:11.410Z,62.9
2022-09-04T04:52:55.113Z,62.9
2022-09-04T04:54:38.801Z,62.9
2022-09-04T04:56:22.493Z,62.9
2022-09-04T04:58:06.208Z,62.8
2022-09-04T04:59:49.911Z,62.9
2022-09-04T05:01:33.615Z,62.8
2022-09-04T05:03:17.302Z,62.8
2022-09-04T05:05:01.009Z,62.8
2022-09-04T05:06:44.708Z,62.8
2022-09-04T05:08:28.407Z,62.8
2022-09-04T05:10:12.102Z,62.8
2022-09-04T05:11:55.823Z,62.8
2022-09-04T05:13:39.547Z,62.8
2022-09-04T05:15:23.208Z,62.8
2022-09-04T05:17:06.920Z,62.8
2022-09-04T05:18:50.602Z,62.8
2022-09-04T05:20:34.300Z,62.7
2022-09-04T05:22:18.008Z,62.7
2022-09-04T05:24:01.696Z,62.6
2022-09-04T05:25:45.410Z,62.6
2022-09-04T05:27:29.111Z,62.6
2022-09-04T05:29:12.835Z,62.5
2022-09-04T05:30:56.497Z,62.5
2022-09-04T05:32:40.225Z,62.5
2022-09-04T05:34:23.959Z,62.5
2022-09-04T05:36:07.615Z,62.5
2022-09-04T05:37:51.320Z,62.5
2022-09-04T05:39:35.006Z,62.4
2022-09-04T05:41:18.722Z,62.4
2022-09-04T05:43:02.438Z,62.3
2022-09-04T05:44:46.119Z,62.3
2022-09-04T05:46:29.811Z,62.3
2022-09-04T05:48:13.529Z,62.2
2022-09-04T05:49:57.265Z,62.2
2022-09-04T05:51:40.930Z,62.1
2022-09-04T05:53:24.635Z,62
2022-09-04T05:55:08.331Z,62
2022-09-04T05:56:52.041Z,61.9
2022-09-04T05:58:35.733Z,61.9
2022-09-04T06:00:19.446Z,61.9
2022-09-04T06:02:03.162Z,61.8
2022-09-04T06:03:46.837Z,61.8
2022-09-04T06:05:30.538Z,61.7
2022-09-04T06:07:14.276Z,61.6
2022-09-04T06:08:57.938Z,61.6
2022-09-04T06:10:41.656Z,61.5
2022-09-04T06:12:25.345Z,61.5
2022-09-04T06:14:09.073Z,61.5
2022-09-04T06:15:52.744Z,61.4
2022-09-04T06:17:36.460Z,61.4
2022-09-04T06:19:20.148Z,61.4
2022-09-04T06:21:03.852Z,61.3
2022-09-04T06:22:47.575Z,61.2
2022-09-04T06:24:31.266Z,61.1
2022-09-04T06:26:14.957Z,61
2022-09-04T06:27:58.672Z,60.9
2022-09-04T06:29:42.362Z,60.8
2022-09-04T06:31:26.107Z,60.6
2022-09-04T06:33:09.830Z,60.6
2022-09-04T06:34:53.511Z,60.5
2022-09-04T06:36:37.177Z,60.4
2022-09-04T06:38:20.877Z,60.3
2022-09-04T06:40:04.587Z,60.2
2022-09-04T06:41:48.264Z,60
2022-09-04T06:43:31.995Z,59.9
2022-09-04T06:45:15.676Z,59.9
2022-09-04T06:46:59.394Z,59.8
2022-09-04T06:48:43.083Z,59.7
2022-09-04T06:50:26.782Z,59.6
2022-09-04T06:52:10.494Z,59.5
2022-09-04T06:53:54.188Z,59.5
2022-09-04T06:55:37.892Z,59.4
2022-09-04T06:57:21.595Z,59.4
2022-09-04T06:59:05.292Z,59.3
2022-09-04T07:00:49.000Z,59.3
2022-09-04T07:02:32.712Z,59.2
2022-09-04T07:04:16.432Z,59.1
2022-09-04T07:06:00.117Z,59
2022-09-04T07:07:43.802Z,58.8
2022-09-04T07:09:27.514Z,58.5
2022-09-04T07:11:11.211Z,58.6
2022-09-04T07:12:54.928Z,58.5
2022-09-04T07:14:38.634Z,58.4
2022-09-04T07:16:22.332Z,58.4
2022-09-04T07:18:06.036Z,58.2
2022-09-04T07:19:49.785Z,58.3
2022-09-04T07:21:33.439Z,58.3
2022-09-04T07:23:17.110Z,58.5
2022-09-04T07:25:00.829Z,57.9
2022-09-04T07:26:44.515Z,57.8
2022-09-04T07:28:28.224Z,57.6
2022-09-04T07:30:11.965Z,57.7
2022-09-04T07:31:55.619Z,57.7
2022-09-04T07:33:39.330Z,57.7
2022-09-04T07:35:23.065Z,57.8
2022-09-04T07:37:06.721Z,57.9
2022-09-04T07:38:50.431Z,58
2022-09-04T07:40:34.123Z,58.2
2022-09-04T07:42:17.845Z,58.1
2022-09-04T07:44:01.543Z,58.3
2022-09-04T07:45:45.248Z,58.4
2022-09-04T07:47:28.941Z,58.5
2022-09-04T07:49:12.625Z,58.5
2022-09-04T07:50:56.328Z,58.5
2022-09-04T07:52:40.038Z,58.4
2022-09-04T07:54:23.747Z,58.4
2022-09-04T07:56:07.426Z,58.3
2022-09-04T07:57:51.134Z,58.3
2022-09-04T07:59:34.834Z,57.9
2022-09-04T08:01:18.557Z,57.7
2022-09-04T08:03:02.238Z,57.3
2022-09-04T08:04:45.927Z,56.8
2022-09-04T08:06:29.639Z,56.4
2022-09-04T08:08:13.367Z,56
2022-09-04T08:09:57.054Z,55.7
2022-09-04T08:11:40.790Z,55.3
2022-09-04T08:13:24.488Z,54.9
2022-09-04T08:15:08.187Z,54.6
2022-09-04T08:16:51.866Z,54
2022-09-04T08:18:35.569Z,53.5
2022-09-04T08:20:19.251Z,53.1
2022-09-04T08:22:02.959Z,52.6
2022-09-04T08:23:46.680Z,52.2
2022-09-04T08:25:30.382Z,51.9
2022-09-04T08:27:14.103Z,51.6
2022-09-04T08:28:57.917Z,51.4
2022-09-04T08:30:41.474Z,51.2
2022-09-04T08:32:25.171Z,51
2022-09-04T08:34:08.891Z,50.8
2022-09-04T08:35:52.600Z,50.7
2022-09-04T08:37:36.283Z,50.6
2022-09-04T08:39:19.990Z,50.5
2022-09-04T08:41:03.672Z,50.5
2022-09-04T08:42:47.369Z,50.5
2022-09-04T08:44:31.112Z,50.5
2022-09-04T08:46:14.791Z,50.5
2022-09-04T08:47:58.479Z,50.6
2022-09-04T08:49:42.175Z,50.7
2022-09-04T08:51:25.892Z,50.8
2022-09-04T08:53:09.597Z,50.8
2022-09-04T08:54:53.283Z,50.9
2022-09-04T08:56:36.974Z,51
2022-09-04T08:58:20.677Z,51.1
2022-09-04T09:00:04.393Z,51.2
2022-09-04T09:01:48.107Z,51.2
2022-09-04T09:03:31.828Z,51.3
2022-09-04T09:05:15.580Z,51.3
2022-09-04T09:06:59.225Z,51.4
2022-09-04T09:08:42.929Z,51.5
2022-09-04T09:10:26.624Z,51.7
2022-09-04T09:12:10.329Z,51.8
2022-09-04T09:13:54.024Z,51.9
2022-09-04T09:15:37.737Z,52.3
2022-09-04T09:17:21.412Z,52.7
2022-09-04T09:19:05.120Z,53.1
2022-09-04T09:20:48.820Z,53.4
2022-09-04T09:22:32.548Z,53.5
2022-09-04T09:24:16.217Z,53.7
2022-09-04T09:25:59.954Z,53.9
2022-09-04T09:27:43.651Z,53.9
2022-09-04T09:29:27.338Z,53.9
2022-09-04T09:31:11.036Z,54
2022-09-04T09:32:54.779Z,54.1
2022-09-04T09:34:38.480Z,54.2
2022-09-04T09:36:22.159Z,54.4
2022-09-04T09:38:05.857Z,54.5
2022-09-04T09:39:49.550Z,54.5
2022-09-04T09:41:33.261Z,54.5
2022-09-04T09:43:16.959Z,54.5
2022-09-04T09:45:00.699Z,54.5
2022-09-04T09:46:44.372Z,54.5
2022-09-04T09:48:28.042Z,54.5
2022-09-04T09:50:11.766Z,54.5
2022-09-04T09:51:55.457Z,54.5
2022-09-04T09:53:39.185Z,54.5
2022-09-04T09:55:22.842Z,54.5
2022-09-04T09:57:06.560Z,54.5
2022-09-04T09:58:50.264Z,54.5
2022-09-04T10:00:33.996Z,54.5
2022-09-04T10:02:17.648Z,54.6
2022-09-04T10:04:01.366Z,54.6
2022-09-04T10:05:45.084Z,54.5
2022-09-04T10:07:28.769Z,54.5
2022-09-04T10:09:12.470Z,54.5
2022-09-04T10:12:39.884Z,54.5
2022-09-04T10:14:23.588Z,54.5
2022-09-04T10:16:07.298Z,54.6
2022-09-04T10:17:51.012Z,54.9
2022-09-04T10:19:34.686Z,55.2
2022-09-04T10:21:18.385Z,55.2
2022-09-04T10:23:02.090Z,55
2022-09-04T10:24:45.846Z,54.9
2022-09-04T10:26:29.507Z,54.8
2022-09-04T10:28:13.209Z,54.7
2022-09-04T10:29:56.954Z,54.6
2022-09-04T10:31:40.654Z,54.5
2022-09-04T10:33:24.332Z,54.5
2022-09-04T10:35:08.027Z,54.3
2022-09-04T10:36:51.727Z,54.3
2022-09-04T10:38:35.422Z,54.1
2022-09-04T10:40:19.140Z,54.1
2022-09-04T10:42:02.880Z,54.1
2022-09-04T10:43:46.536Z,54
2022-09-04T10:45:30.264Z,54
2022-09-04T10:47:13.944Z,54
2022-09-04T10:48:57.648Z,54
2022-09-04T10:50:41.357Z,53.9
2022-09-04T10:52:25.072Z,53.8
2022-09-04T10:54:08.775Z,53.8
2022-09-04T10:55:52.464Z,53.8
2022-09-04T10:57:36.170Z,53.8
2022-09-04T10:59:19.896Z,54
2022-09-04T11:01:03.626Z,53.9
2022-09-04T11:02:47.358Z,53.8
2022-09-04T11:04:30.989Z,53.8
2022-09-04T11:06:14.693Z,53.8
2022-09-04T11:07:58.407Z,53.9
2022-09-04T11:09:42.080Z,53.8
2022-09-04T11:11:25.822Z,53.7
2022-09-04T11:13:09.556Z,53.6
2022-09-04T11:14:53.203Z,53.6
2022-09-04T11:16:36.916Z,53.5
2022-09-04T11:18:20.623Z,53.6
2022-09-04T11:20:04.355Z,53.6
2022-09-04T11:21:48.046Z,53.6
2022-09-04T11:23:31.716Z,53.7
2022-09-04T11:25:15.420Z,53.6
2022-09-04T11:26:59.117Z,53.7
2022-09-04T11:28:42.825Z,53.7
2022-09-04T11:30:26.511Z,53.8
2022-09-04T11:32:10.229Z,53.8
2022-09-04T11:33:53.960Z,53.9
2022-09-04T11:35:37.635Z,53.9
2022-09-04T11:37:21.346Z,54
2022-09-04T11:39:05.030Z,54.2
2022-09-04T11:40:48.733Z,54.2
2022-09-04T11:42:32.440Z,54.2
2022-09-04T11:44:16.150Z,54.2
2022-09-04T11:45:59.866Z,54.3
2022-09-04T11:47:43.540Z,54.3
2022-09-04T11:49:27.234Z,54.3
2022-09-04T11:51:10.936Z,54.2
2022-09-04T11:52:54.676Z,54.2
2022-09-04T11:54:38.393Z,54.2
2022-09-04T11:56:22.073Z,54.2
2022-09-04T11:58:05.764Z,54.2
2022-09-04T11:59:49.461Z,54.4
2022-09-04T12:01:33.170Z,54.5
2022-09-04T12:03:16.860Z,54.8
2022-09-04T12:05:00.554Z,54.9
2022-09-04T12:06:44.275Z,55.1
2022-09-04T12:08:27.967Z,55.1
2022-09-04T12:10:11.665Z,55.1
2022-09-04T12:11:55.380Z,55.2
2022-09-04T12:13:39.063Z,55.1
2022-09-04T12:15:22.767Z,55.2
2022-09-04T12:17:06.514Z,55.1
2022-09-04T12:18:50.180Z,55
2022-09-04T12:20:33.892Z,54.8
2022-09-04T12:22:17.580Z,54.7
2022-09-04T12:24:01.279Z,54.6
2022-09-04T12:25:44.970Z,54.5
2022-09-04T12:27:28.667Z,54.8
2022-09-04T12:29:12.373Z,55
2022-09-04T12:30:56.089Z,55
2022-09-04T12:32:39.792Z,55
2022-09-04T12:34:23.484Z,54.8
2022-09-04T12:36:07.188Z,54.9
2022-09-04T12:37:50.891Z,54.6
2022-09-04T12:39:34.578Z,54.6
2022-09-04T12:41:18.276Z,54.6
2022-09-04T12:43:01.996Z,54.5
2022-09-04T12:44:45.680Z,53.1
2022-09-04T12:46:29.404Z,53.8
2022-09-04T12:48:13.117Z,54
2022-09-04T12:49:56.791Z,54
2022-09-04T12:51:40.505Z,54.1
2022-09-04T12:53:24.214Z,54.1
2022-09-04T12:55:07.903Z,54.1
2022-09-04T12:56:51.605Z,54
2022-09-04T12:58:35.347Z,54.1
2022-09-04T13:00:18.991Z,54.2
2022-09-04T13:02:02.731Z,54
2022-09-04T13:03:46.442Z,54.1
2022-09-04T13:05:30.166Z,54
2022-09-04T13:07:13.843Z,54
2022-09-04T13:08:57.509Z,54
2022-09-04T13:10:41.215Z,54
2022-09-04T13:12:24.970Z,54.1
2022-09-04T13:14:08.637Z,54.1
2022-09-04T13:15:52.323Z,54.1
2022-09-04T13:17:36.028Z,54.1
2022-09-04T13:19:19.768Z,54.1
2022-09-04T13:21:03.419Z,54.2
2022-09-04T13:22:47.157Z,54.1
2022-09-04T13:24:30.853Z,54.1
2022-09-04T13:26:14.599Z,54.1
2022-09-04T13:27:58.233Z,54.2
2022-09-04T13:29:41.952Z,54.3
2022-09-04T13:31:25.635Z,54.5
2022-09-04T13:33:09.376Z,54.2
2022-09-04T13:34:53.043Z,54.1
2022-09-04T13:36:36.791Z,54.4
2022-09-04T13:38:20.478Z,54.8
2022-09-04T13:40:04.193Z,54.8
2022-09-04T13:41:47.905Z,54.7
2022-09-04T13:43:31.588Z,54.7
2022-09-04T13:45:15.259Z,54.5
2022-09-04T13:46:59.004Z,54.5
2022-09-04T13:48:42.715Z,54.6
2022-09-04T13:50:26.382Z,54.5
2022-09-04T13:52:10.120Z,54.4
2022-09-04T13:53:53.816Z,54.4
2022-09-04T13:55:37.508Z,54.4
2022-09-04T13:57:21.195Z,54.3
2022-09-04T13:59:04.921Z,54.3
2022-09-04T14:00:48.576Z,53.9
2022-09-04T14:02:32.306Z,53.8
2022-09-04T14:04:16.049Z,53.8
2022-09-04T14:05:59.706Z,53.9
2022-09-04T14:07:43.436Z,53.9
2022-09-04T14:09:27.108Z,54
2022-09-04T14:11:10.795Z,54.2
2022-09-04T14:12:54.509Z,54.3
2022-09-04T14:14:38.209Z,54.5
2022-09-04T14:16:21.915Z,54.5
2022-09-04T14:18:05.641Z,54.6
2022-09-04T14:19:49.319Z,54.7
2022-09-04T14:21:33.135Z,54.9
2022-09-04T14:23:16.767Z,55.1
2022-09-04T14:25:00.433Z,55.5
2022-09-04T14:26:44.143Z,55.8
2022-09-04T14:28:27.876Z,56.1
2022-09-04T14:30:11.555Z,56.5
2022-09-04T14:31:55.229Z,56.6
2022-09-04T14:33:38.946Z,56.8
2022-09-04T14:35:22.639Z,57.2
2022-09-04T14:37:06.341Z,57.5
2022-09-04T14:38:50.053Z,57.6
2022-09-04T14:40:33.760Z,57.5
2022-09-04T14:42:17.442Z,57.4
2022-09-04T14:44:01.136Z,57.1
2022-09-04T14:45:44.846Z,56.9
2022-09-04T14:47:28.565Z,56.7
2022-09-04T14:49:12.239Z,56.6
2022-09-04T14:50:55.934Z,56.5
2022-09-04T14:52:39.666Z,56.4
2022-09-04T14:54:23.354Z,56.3
2022-09-04T14:56:07.053Z,56.2
2022-09-04T14:57:50.759Z,56.1
2022-09-04T14:59:34.463Z,56
2022-09-04T15:01:18.165Z,55.9
2022-09-04T15:03:01.842Z,55.9
2022-09-04T15:04:45.554Z,55.9
2022-09-04T15:06:29.252Z,55.9
2022-09-04T15:08:12.976Z,55.8
2022-09-04T15:09:56.663Z,55.8
2022-09-04T15:11:40.368Z,55.8
2022-09-04T15:13:24.072Z,55.8
2022-09-04T15:15:07.769Z,55.8
2022-09-04T15:16:51.464Z,55.7
2022-09-04T15:18:35.163Z,55.3
2022-09-04T15:20:18.866Z,55.2
2022-09-04T15:22:02.586Z,54.9
2022-09-04T15:23:46.269Z,54.9
2022-09-04T15:25:29.956Z,54.7
2022-09-04T15:27:13.676Z,54.7
2022-09-04T15:28:57.368Z,54.8
2022-09-04T15:30:41.060Z,54.8
2022-09-04T15:32:24.770Z,54.5
2022-09-04T15:34:08.481Z,54.6
2022-09-04T15:35:52.186Z,54.9
2022-09-04T15:37:35.877Z,55.1
2022-09-04T15:39:19.663Z,55.1
2022-09-04T15:41:03.275Z,55.1
2022-09-04T15:42:46.981Z,55.2
2022-09-04T15:44:30.653Z,55.2
2022-09-04T15:46:14.376Z,55.3
2022-09-04T15:47:58.076Z,55.5
2022-09-04T15:49:41.793Z,55.5
2022-09-04T15:51:25.452Z,55.6
2022-09-04T15:53:09.171Z,55.7
2022-09-04T15:54:52.886Z,55.9
2022-09-04T15:56:36.576Z,55.9
2022-09-04T15:58:20.272Z,55.9
2022-09-04T16:00:03.963Z,56
2022-09-04T16:01:47.664Z,56.1
2022-09-04T16:03:31.373Z,56.1
2022-09-04T16:05:15.080Z,56
2022-09-04T16:06:58.775Z,55.9
2022-09-04T16:08:42.493Z,55.9
2022-09-04T16:10:26.189Z,55.9
2022-09-04T16:12:09.881Z,55.8
2022-09-04T16:13:53.581Z,55.9
2022-09-04T16:15:37.315Z,55.9
2022-09-04T16:17:21.000Z,55.9
2022-09-04T16:19:04.698Z,55.9
2022-09-04T16:20:48.408Z,56
2022-09-04T16:22:32.122Z,56
2022-09-04T16:24:15.815Z,56.1
2022-09-04T16:25:59.522Z,56.2
2022-09-04T16:27:43.216Z,56.2
2022-09-04T16:29:26.915Z,56.3
2022-09-04T16:31:10.622Z,56.3
2022-09-04T16:32:54.317Z,56.4
2022-09-04T16:34:38.024Z,56.5
2022-09-04T16:36:21.734Z,56.5
2022-09-04T16:38:05.435Z,56.5
2022-09-04T16:39:49.156Z,56.5
2022-09-04T16:41:32.826Z,56.6
2022-09-04T16:43:16.538Z,56.6
2022-09-04T16:45:00.236Z,56.7
2022-09-04T16:46:43.947Z,56.9
2022-09-04T16:48:27.626Z,57
2022-09-04T16:50:11.327Z,57
2022-09-04T16:51:55.034Z,57.1
2022-09-04T16:53:38.742Z,57.2
2022-09-04T16:55:22.439Z,57.3
2022-09-04T16:57:06.132Z,57.3
2022-09-04T16:58:49.847Z,57.4
2022-09-04T17:00:33.533Z,57.6
2022-09-04T17:02:17.277Z,58.1
2022-09-04T17:04:00.929Z,58.7
2022-09-04T17:05:44.638Z,58.9
2022-09-04T17:07:28.339Z,58.9
2022-09-04T17:09:12.054Z,59.2
2022-09-04T17:10:55.760Z,59.3
2022-09-04T17:12:39.437Z,59.2
2022-09-04T17:14:23.156Z,59.3
2022-09-04T17:16:06.857Z,59.3
2022-09-04T17:17:50.536Z,59.4
2022-09-04T17:19:34.242Z,59.4
2022-09-04T17:21:17.943Z,59.4
2022-09-04T17:23:01.652Z,59.4
2022-09-04T17:24:45.347Z,59.4
2022-09-04T17:26:29.059Z,59.4
2022-09-04T17:28:12.776Z,59.6
2022-09-04T17:29:56.455Z,59.8
2022-09-04T17:31:40.149Z,59.7
2022-09-04T17:33:23.888Z,59.8
2022-09-04T17:35:07.557Z,59.9
2022-09-04T17:36:51.262Z,59.9
2022-09-04T17:38:34.939Z,59.9
2022-09-04T17:40:18.640Z,59.8
2022-09-04T17:42:02.348Z,59.8
2022-09-04T17:43:46.053Z,59.7
2022-09-04T17:45:29.735Z,59.8
2022-09-04T17:47:13.460Z,59.9
2022-09-04T17:48:57.189Z,59.8
2022-09-04T17:50:40.857Z,59.9
2022-09-04T17:52:24.579Z,59.8
2022-09-04T17:54:08.277Z,59.8
2022-09-04T17:55:51.992Z,59.6
2022-09-04T17:57:35.726Z,59.5
2022-09-04T17:59:19.358Z,59.6
2022-09-04T18:01:03.062Z,59.7
2022-09-04T18:02:46.778Z,59.7
2022-09-04T18:04:30.465Z,59.6
2022-09-04T18:06:14.193Z,59.7
2022-09-04T18:07:57.866Z,59.8
2022-09-04T18:09:41.581Z,59.5
2022-09-04T18:11:25.309Z,59.6
2022-09-04T18:13:08.988Z,59.6
2022-09-04T18:14:52.656Z,59.5
2022-09-04T18:16:36.397Z,59.6
2022-09-04T18:18:20.057Z,59.7
2022-09-04T18:20:03.782Z,59.6
2022-09-04T18:21:47.522Z,59.8
2022-09-04T18:23:31.171Z,59.8
2022-09-04T18:25:14.854Z,59.8
2022-09-04T18:26:58.569Z,59.7
2022-09-04T18:28:42.267Z,59.7
2022-09-04T18:30:25.965Z,59.7
2022-09-04T18:32:09.707Z,59.8
2022-09-04T18:33:53.385Z,59.8
2022-09-04T18:35:37.072Z,59.7
2022-09-04T18:37:20.838Z,59.6
2022-09-04T18:39:04.464Z,59.7
2022-09-04T18:40:48.178Z,59.7
2022-09-04T18:42:31.880Z,59.5
2022-09-04T18:44:15.583Z,59.5
2022-09-04T18:45:59.295Z,59.5
2022-09-04T18:47:42.982Z,59.7
2022-09-04T18:49:26.688Z,59.6
2022-09-04T18:51:10.384Z,59.9
2022-09-04T18:52:54.083Z,59.6
2022-09-04T18:54:37.801Z,59.7
2022-09-04T18:56:21.505Z,60
2022-09-04T18:58:05.201Z,60
2022-09-04T18:59:48.905Z,60
2022-09-04T19:01:32.605Z,60.1
2022-09-04T19:03:16.322Z,60.1
2022-09-04T19:05:00.021Z,60.2
2022-09-04T19:06:43.721Z,60.2
2022-09-04T19:08:27.407Z,60.3
2022-09-04T19:10:11.122Z,60.3
2022-09-04T19:11:54.822Z,60.2
2022-09-04T19:13:38.527Z,60.3
2022-09-04T19:15:22.227Z,60.2
2022-09-04T19:17:05.954Z,60.2
2022-09-04T19:18:49.626Z,60.3
2022-09-04T19:20:33.335Z,60.4
2022-09-04T19:22:17.051Z,60.4
2022-09-04T19:24:00.760Z,60.6
2022-09-04T19:25:44.463Z,60.6
2022-09-04T19:27:28.200Z,60.5
2022-09-04T19:29:11.855Z,60.5
2022-09-04T19:30:55.551Z,60.7
2022-09-04T19:32:39.260Z,60.7
2022-09-04T19:34:22.961Z,60.7
2022-09-04T19:36:06.682Z,60.7
2022-09-04T19:37:50.362Z,60.8
2022-09-04T19:39:34.072Z,60.8
2022-09-04T19:41:17.764Z,60.8
2022-09-04T19:43:01.494Z,60.8
2022-09-04T19:44:45.172Z,60.9
2022-09-04T19:46:28.933Z,61
2022-09-04T19:48:12.576Z,61.1
2022-09-04T19:49:56.275Z,61
2022-09-04T19:51:39.977Z,61.1
2022-09-04T19:53:23.885Z,61.1
2022-09-04T19:55:07.399Z,61.2
2022-09-04T19:56:51.081Z,61.2
2022-09-04T19:58:34.806Z,61.2
2022-09-04T20:00:18.486Z,61.3
2022-09-04T20:02:02.191Z,61.4
2022-09-04T20:03:45.885Z,61.4
2022-09-04T20:05:29.593Z,61.5
2022-09-04T20:07:13.295Z,61.5
2022-09-04T20:08:56.988Z,61.6
2022-09-04T20:10:40.696Z,61.6
2022-09-04T20:12:24.385Z,61.7
2022-09-04T20:14:08.085Z,61.7
2022-09-04T20:15:51.800Z,62
2022-09-04T20:17:35.484Z,61.9
2022-09-04T20:19:19.186Z,61.9
2022-09-04T20:21:02.902Z,62
2022-09-04T20:22:46.617Z,62
2022-09-04T20:24:30.295Z,62.1
2022-09-04T20:26:13.994Z,62.2
2022-09-04T20:27:57.737Z,62.1
2022-09-04T20:29:41.412Z,62.3
2022-09-04T20:31:25.113Z,62.4
2022-09-04T20:33:08.829Z,62.2
2022-09-04T20:34:52.523Z,62.3
2022-09-04T20:36:36.216Z,62.4
2022-09-04T20:38:19.963Z,62.6
2022-09-04T20:40:03.610Z,62.6
2022-09-04T20:41:47.312Z,62.7
2022-09-04T20:43:31.014Z,62.8
2022-09-04T20:45:14.721Z,63
2022-09-04T20:46:58.424Z,63.1
2022-09-04T20:48:42.117Z,63.3
2022-09-04T20:50:25.824Z,63.3
2022-09-04T20:52:09.524Z,63.4
2022-09-04T20:53:53.246Z,63.5
2022-09-04T20:55:36.934Z,63.6
2022-09-04T20:57:20.629Z,63.6
2022-09-04T20:59:04.335Z,63.7
2022-09-04T21:00:48.051Z,63.8
2022-09-04T21:02:31.744Z,64
2022-09-04T21:04:15.451Z,64.2
2022-09-04T21:05:59.153Z,64.3
2022-09-04T21:07:42.866Z,64.2
2022-09-04T21:09:26.545Z,64.3
2022-09-04T21:11:10.251Z,64.2
2022-09-04T21:12:53.950Z,64.2
2022-09-04T21:14:37.653Z,64.3
2022-09-04T21:16:21.337Z,64.3
2022-09-04T21:18:05.052Z,64.2
2022-09-04T21:19:48.760Z,64.3
2022-09-04T21:21:32.451Z,64.4
2022-09-04T21:23:16.150Z,64.4
2022-09-04T21:24:59.853Z,64.3
2022-09-04T21:26:43.553Z,64.3
2022-09-04T21:28:27.271Z,64.4
2022-09-04T21:30:10.957Z,64.4
2022-09-04T21:31:54.693Z,64.5
2022-09-04T21:33:38.359Z,64.5
2022-09-04T21:35:22.074Z,64.5
2022-09-04T21:37:05.812Z,64.6
2022-09-04T21:38:49.505Z,64.7
2022-09-04T21:40:33.196Z,64.8
2022-09-04T21:42:16.889Z,64.8
2022-09-04T21:44:00.583Z,64.8
2022-09-04T21:45:44.313Z,64.8
2022-09-04T21:47:27.982Z,64.8
2022-09-04T21:49:11.689Z,64.9
2022-09-04T21:50:55.377Z,64.9
2022-09-04T21:52:39.089Z,64.9
2022-09-04T21:54:22.788Z,64.8
2022-09-04T21:56:06.507Z,64.8
2022-09-04T21:57:50.187Z,64.9
2022-09-04T21:59:33.887Z,64.8
2022-09-04T22:01:17.579Z,64.9
2022-09-04T22:03:01.280Z,65
2022-09-04T22:04:45.001Z,65
2022-09-04T22:06:28.724Z,65
2022-09-04T22:08:12.405Z,64.9
2022-09-04T22:09:56.115Z,64.8
2022-09-04T22:11:39.801Z,64.7
2022-09-04T22:13:23.511Z,64.6
2022-09-04T22:15:07.236Z,64.6
2022-09-04T22:16:50.899Z,64.5
2022-09-04T22:18:34.612Z,64.4
2022-09-04T22:20:18.316Z,64.4
2022-09-04T22:22:02.004Z,64.3
2022-09-04T22:23:45.749Z,64.3
2022-09-04T22:25:29.414Z,64.3
2022-09-04T22:27:13.127Z,64.3
2022-09-04T22:28:56.824Z,64.3
2022-09-04T22:30:40.516Z,64.3
2022-09-04T22:32:24.225Z,64.3
2022-09-04T22:34:07.922Z,64.4
2022-09-04T22:35:51.627Z,64.4
2022-09-04T22:37:35.345Z,64.4
2022-09-04T22:39:19.082Z,64.4
2022-09-04T22:41:02.756Z,64.5
2022-09-04T22:42:46.447Z,64.5
2022-09-04T22:44:30.155Z,64.5
2022-09-04T22:46:13.842Z,64.3
2022-09-04T22:47:57.542Z,64.2
2022-09-04T22:49:41.246Z,64.2
2022-09-04T22:51:24.993Z,64.2
2022-09-04T22:53:08.652Z,64.2
2022-09-04T22:54:52.395Z,64.1
2022-09-04T22:56:36.067Z,64.1
2022-09-04T22:58:19.761Z,64.1
2022-09-04T23:00:03.493Z,64
2022-09-04T23:01:47.172Z,64
2022-09-04T23:03:30.871Z,63.9
2022-09-04T23:05:14.568Z,63.9
2022-09-04T23:06:58.269Z,63.8
2022-09-04T23:08:41.986Z,63.7
2022-09-04T23:10:25.679Z,63.7
2022-09-04T23:12:09.380Z,63.7